Time;durP1;ratioP1;P1;durP2;ratioP2;P2;SDS_P1;SDS_P2;PMS_P1;PMS_P2;Temp;Humidity;BMP_temperature;BMP_pressure;BME280_temperature;BME280_humidity;BME280_pressure;Samples;Min_cycle;Max_cycle;Signal;HPM_P1;HPM_P2
2022/06/21 00:02:12;;;;;;;3.73;1.30;;;;;;;23.31;42.91;97400.63;5054052;28;20450;-73
2022/06/21 00:04:37;;;;;;;2.10;1.20;;;;;;;23.39;42.72;97399.47;5051061;28;20612;-74
2022/06/21 00:07:05;;;;;;;2.23;1.10;;;;;;;23.47;42.63;97396.44;5060780;28;20578;-72
2022/06/21 00:09:31;;;;;;;1.30;1.10;;;;;;;23.51;42.33;97401.34;5064146;28;20257;-73
2022/06/21 00:11:56;;;;;;;1.53;1.43;;;;;;;23.50;42.15;97410.41;5066111;28;20429;-73
2022/06/21 00:14:22;;;;;;;1.20;1.00;;;;;;;23.47;42.36;97401.81;5067848;28;20828;-73
2022/06/21 00:16:47;;;;;;;3.03;1.17;;;;;;;23.45;42.50;97403.88;5059984;28;20194;-72
2022/06/21 00:19:19;;;;;;;2.60;1.03;;;;;;;23.39;42.85;97396.81;5067102;28;20255;-73
2022/06/21 00:21:46;;;;;;;2.40;1.20;;;;;;;23.29;43.08;97389.34;5060514;28;20198;-74
2022/06/21 00:24:12;;;;;;;2.60;1.40;;;;;;;23.15;43.11;97390.56;5058056;28;20456;-73
2022/06/21 00:26:37;;;;;;;4.23;1.40;;;;;;;23.09;43.02;97394.16;5064086;28;20508;-73
2022/06/21 00:29:03;;;;;;;2.20;1.10;;;;;;;22.99;43.44;97389.34;5067334;28;20990;-74
2022/06/21 00:31:31;;;;;;;1.43;1.10;;;;;;;22.94;43.96;97398.06;5067258;28;20178;-72
2022/06/21 00:33:58;;;;;;;2.23;1.33;;;;;;;22.98;44.11;97398.41;5058571;28;20214;-73
2022/06/21 00:36:33;;;;;;;2.27;1.00;;;;;;;22.97;43.91;97400.28;5061114;28;20551;-72
2022/06/21 00:39:00;;;;;;;2.33;1.33;;;;;;;22.98;44.12;97409.09;5054411;28;20424;-72
2022/06/21 00:41:50;;;;;;;1.20;1.00;;;;;;;22.98;44.39;97409.09;5057804;28;20428;-73
2022/06/21 00:44:40;;;;;;;2.43;1.20;;;;;;;22.94;44.46;97407.91;5052652;28;20437;-73
2022/06/21 00:47:44;;;;;;;3.33;1.30;;;;;;;22.96;44.52;97404.00;5062281;28;20421;-73
2022/06/21 00:50:17;;;;;;;2.40;1.10;;;;;;;22.92;44.37;97392.13;5063013;28;20978;-73
2022/06/21 00:52:48;;;;;;;3.30;1.40;;;;;;;22.91;44.41;97392.34;5061450;28;20425;-72
2022/06/21 00:55:18;;;;;;;1.30;1.20;;;;;;;22.78;44.88;97396.84;5047481;28;20477;-73
2022/06/21 00:57:51;;;;;;;2.00;1.20;;;;;;;22.58;45.16;97386.41;5062254;28;20437;-73
2022/06/21 01:00:25;;;;;;;1.73;1.30;;;;;;;22.62;45.49;97384.09;5065328;28;20428;-73
2022/06/21 01:02:51;;;;;;;2.43;1.30;;;;;;;22.52;45.21;97390.81;5062500;28;20433;-73
2022/06/21 01:05:16;;;;;;;1.50;1.07;;;;;;;22.42;45.25;97385.19;5061718;28;20454;-73
2022/06/21 01:07:42;;;;;;;3.20;1.47;;;;;;;22.45;45.43;97386.59;5061990;28;20229;-73
2022/06/21 01:10:09;;;;;;;3.27;1.10;;;;;;;22.42;45.31;97379.03;5060116;28;20267;-74
2022/06/21 01:13:00;;;;;;;1.57;1.07;;;;;;;22.40;45.49;97376.56;5068952;28;20186;-74
2022/06/21 01:15:33;;;;;;;2.53;1.10;;;;;;;22.39;45.61;97372.25;5045177;28;20469;-74
2022/06/21 01:18:02;;;;;;;3.20;1.50;;;;;;;22.29;45.53;97377.31;5055466;28;20447;-74
2022/06/21 01:20:32;;;;;;;3.00;1.30;;;;;;;22.22;46.14;97378.19;5032308;28;20523;-74
2022/06/21 01:23:10;;;;;;;1.93;1.17;;;;;;;22.20;46.08;97376.78;5044306;28;20559;-74
2022/06/21 01:25:38;;;;;;;6.50;1.47;;;;;;;22.28;46.41;97370.34;5052560;28;20468;-73
2022/06/21 01:28:04;;;;;;;1.50;1.40;;;;;;;22.22;46.11;97367.50;5061327;28;20439;-74
2022/06/21 01:30:30;;;;;;;1.60;1.23;;;;;;;22.17;46.41;97361.22;5067554;28;20424;-74
2022/06/21 01:32:57;;;;;;;1.30;1.20;;;;;;;22.25;46.12;97363.56;5063591;28;20437;-73
2022/06/21 01:35:47;;;;;;;1.50;1.10;;;;;;;22.22;46.25;97343.50;5057755;28;20242;-73
2022/06/21 01:38:21;;;;;;;3.10;1.20;;;;;;;22.05;46.65;97342.47;5052254;28;20440;-72
2022/06/21 01:40:48;;;;;;;2.90;1.40;;;;;;;21.97;46.64;97332.91;5062984;28;20758;-73
2022/06/21 01:43:18;;;;;;;1.40;1.20;;;;;;;21.98;46.62;97333.72;5064723;28;20429;-74
2022/06/21 01:45:51;;;;;;;1.30;1.10;;;;;;;22.04;46.49;97316.84;5057992;28;20939;-73
2022/06/21 01:48:22;;;;;;;1.50;1.40;;;;;;;22.07;46.22;97308.34;5065798;28;20425;-72
2022/06/21 01:50:49;;;;;;;2.13;1.10;;;;;;;22.14;46.42;97303.78;5040912;28;20417;-73
2022/06/21 01:53:17;;;;;;;1.40;1.00;;;;;;;22.13;46.01;97301.31;5064824;28;20448;-73
2022/06/21 01:55:45;;;;;;;1.90;1.13;;;;;;;22.19;45.93;97285.22;5059676;28;20560;-72
2022/06/21 01:58:15;;;;;;;1.40;1.10;;;;;;;22.27;45.42;97291.31;5065121;28;20806;-73
2022/06/21 02:00:44;;;;;;;3.90;1.30;;;;;;;22.25;45.21;97297.66;5062812;28;20801;-72
2022/06/21 02:03:15;;;;;;;1.40;1.30;;;;;;;22.20;45.12;97297.53;5056004;28;20799;-72
2022/06/21 02:05:48;;;;;;;2.03;1.20;;;;;;;22.08;45.47;97310.00;5059586;28;20480;-73
2022/06/21 02:08:15;;;;;;;2.00;1.30;;;;;;;22.06;45.56;97306.72;5062645;28;20499;-73
2022/06/21 02:10:43;;;;;;;1.37;1.27;;;;;;;22.03;45.29;97304.53;5062397;28;20429;-73
2022/06/21 02:13:14;;;;;;;1.57;1.27;;;;;;;21.92;45.41;97309.56;5063767;28;20524;-72
2022/06/21 02:15:44;;;;;;;1.53;1.10;;;;;;;21.95;45.38;97305.63;5053578;28;21022;-73
2022/06/21 02:18:11;;;;;;;1.97;1.40;;;;;;;21.80;45.81;97300.66;5057496;28;20821;-73
2022/06/21 02:21:02;;;;;;;1.67;1.47;;;;;;;21.73;45.99;97307.94;5065302;28;20863;-72
2022/06/21 02:23:27;;;;;;;3.57;1.20;;;;;;;21.72;46.13;97307.13;5043249;28;20425;-73
2022/06/21 02:25:54;;;;;;;1.33;1.20;;;;;;;21.69;46.33;97302.22;5065309;28;20450;-73
2022/06/21 02:28:20;;;;;;;1.20;1.10;;;;;;;21.69;46.50;97296.06;5064707;28;20275;-72
2022/06/21 02:30:47;;;;;;;2.23;1.57;;;;;;;21.62;46.47;97296.97;5069342;28;20428;-73
2022/06/21 02:33:17;;;;;;;4.00;1.40;;;;;;;21.56;46.59;97300.47;5064863;28;21003;-72
2022/06/21 02:35:50;;;;;;;2.90;1.50;;;;;;;21.51;46.68;97296.84;5061402;28;20464;-72
2022/06/21 02:38:25;;;;;;;1.10;1.00;;;;;;;21.48;46.84;97298.09;5048003;28;20425;-73
2022/06/21 02:40:57;;;;;;;1.40;1.30;;;;;;;21.49;47.09;97294.41;5060052;28;20422;-73
2022/06/21 02:43:29;;;;;;;1.73;1.30;;;;;;;21.51;47.00;97296.84;5036631;28;20436;-73
2022/06/21 02:46:08;;;;;;;1.40;1.30;;;;;;;21.46;47.27;97297.50;5062290;28;20452;-72
2022/06/21 02:48:38;;;;;;;2.80;1.20;;;;;;;21.41;47.56;97300.03;5048879;28;20427;-72
2022/06/21 02:51:08;;;;;;;1.50;1.40;;;;;;;21.30;47.52;97298.88;5054295;28;20433;-73
2022/06/21 02:53:41;;;;;;;1.40;1.30;;;;;;;21.29;47.85;97306.06;5065927;28;20446;-73
2022/06/21 02:56:29;;;;;;;1.30;1.10;;;;;;;21.29;47.82;97308.75;5069170;28;20460;-73
2022/06/21 02:58:58;;;;;;;1.43;1.13;;;;;;;21.29;48.10;97303.41;5051661;28;20446;-74
2022/06/21 03:01:33;;;;;;;2.80;1.47;;;;;;;21.31;47.99;97300.53;5070522;28;20424;-74
2022/06/21 03:03:59;;;;;;;5.23;1.20;;;;;;;21.29;47.50;97289.25;5053417;28;20543;-73
2022/06/21 03:06:26;;;;;;;1.33;1.23;;;;;;;21.22;47.60;97302.63;5064214;28;20456;-71
2022/06/21 03:08:56;;;;;;;1.43;1.20;;;;;;;21.05;48.19;97286.38;5064558;28;20795;-72
2022/06/21 03:11:23;;;;;;;1.80;1.20;;;;;;;21.08;48.04;97287.78;5058349;28;20891;-72
2022/06/21 03:13:49;;;;;;;1.50;1.20;;;;;;;21.04;48.00;97283.94;5066540;28;20858;-72
2022/06/21 03:16:19;;;;;;;1.20;1.10;;;;;;;21.05;47.95;97282.91;5056745;28;20783;-72
2022/06/21 03:18:49;;;;;;;4.17;1.40;;;;;;;20.93;47.78;97283.59;5072112;28;20945;-73
2022/06/21 03:21:15;;;;;;;2.50;1.10;;;;;;;20.91;47.71;97282.19;5064021;28;20432;-73
2022/06/21 03:23:44;;;;;;;2.70;1.30;;;;;;;20.87;47.88;97279.16;5071809;28;20432;-72
2022/06/21 03:26:12;;;;;;;2.50;1.40;;;;;;;20.83;48.39;97275.28;5061474;28;20441;-72
2022/06/21 03:28:45;;;;;;;8.10;2.87;;;;;;;20.84;48.13;97275.09;5065167;28;20519;-73
2022/06/21 03:31:15;;;;;;;3.20;2.10;;;;;;;20.84;48.25;97269.75;5066219;28;20432;-72
2022/06/21 03:33:43;;;;;;;3.27;1.50;;;;;;;20.82;48.36;97269.16;5064581;28;20437;-73
2022/06/21 03:36:11;;;;;;;2.57;1.60;;;;;;;20.86;48.34;97261.53;5059502;28;20535;-72
2022/06/21 03:38:39;;;;;;;4.83;1.90;;;;;;;20.85;48.48;97259.91;5060632;28;20474;-72
2022/06/21 03:43:57;;;;;;;1.40;1.10;;;;;;;20.85;48.60;97274.06;5066728;28;20512;-71
2022/06/21 03:46:26;;;;;;;8.60;3.13;;;;;;;20.92;48.36;97270.50;5041885;28;20451;-72
2022/06/21 03:48:58;;;;;;;2.37;1.80;;;;;;;20.92;48.57;97270.50;5042732;28;20819;-72
2022/06/21 03:51:28;;;;;;;5.67;1.60;;;;;;;20.98;48.51;97270.47;5044353;28;20465;-72
2022/06/21 03:53:58;;;;;;;1.67;1.50;;;;;;;21.07;48.63;97264.84;5050786;28;20484;-72
2022/06/21 03:56:32;;;;;;;3.63;1.50;;;;;;;21.17;48.37;97263.31;5035788;28;20528;-72
2022/06/21 03:59:29;;;;;;;5.40;1.47;;;;;;;21.24;48.18;97263.28;5061038;28;20950;-72
2022/06/21 04:02:09;;;;;;;2.07;1.57;;;;;;;21.18;48.31;97254.31;5061999;28;20528;-73
2022/06/21 04:04:46;;;;;;;6.60;1.97;;;;;;;21.04;48.16;97265.31;5054788;28;20448;-73
2022/06/21 04:07:17;;;;;;;1.80;1.40;;;;;;;21.02;48.44;97255.69;5063759;28;20429;-72
2022/06/21 04:10:06;;;;;;;1.90;1.57;;;;;;;20.98;48.39;97243.03;5054068;28;20412;-72
2022/06/21 04:12:40;;;;;;;3.30;1.80;;;;;;;20.93;48.54;97245.50;5064182;28;20421;-73
2022/06/21 04:15:25;;;;;;;3.73;1.50;;;;;;;20.97;48.46;97252.84;5054495;28;20464;-72
2022/06/21 04:17:57;;;;;;;3.37;1.30;;;;;;;20.98;47.81;97259.00;5061037;28;20932;-72
2022/06/21 04:20:30;;;;;;;3.77;1.87;;;;;;;20.98;48.45;97253.69;5063614;28;20523;-73
2022/06/21 04:23:14;;;;;;;1.50;1.40;;;;;;;21.08;48.40;97250.50;5068416;28;20448;-73
2022/06/21 04:25:56;;;;;;;2.10;1.63;;;;;;;21.22;48.30;97257.34;5051309;28;20529;-73
2022/06/21 04:28:25;;;;;;;2.67;1.70;;;;;;;21.32;47.89;97243.53;5060241;28;20440;-74
2022/06/21 04:31:05;;;;;;;2.30;1.40;;;;;;;21.39;47.17;97248.78;5053909;28;20475;-73
2022/06/21 04:33:49;;;;;;;1.60;1.27;;;;;;;21.47;47.24;97251.16;5054258;28;20436;-73
2022/06/21 04:36:35;;;;;;;1.93;1.53;;;;;;;21.57;46.75;97250.63;5057719;28;20504;-72
2022/06/21 04:39:08;;;;;;;2.57;1.50;;;;;;;21.56;46.68;97265.00;5066314;28;20430;-73
2022/06/21 04:41:38;;;;;;;1.60;1.50;;;;;;;21.49;46.67;97257.88;5054483;28;20434;-73
2022/06/21 04:44:25;;;;;;;1.40;1.30;;;;;;;21.49;46.85;97259.75;5055746;28;20523;-72
2022/06/21 04:47:10;;;;;;;1.30;1.20;;;;;;;21.48;46.42;97252.78;5065915;28;20421;-73
2022/06/21 04:49:37;;;;;;;1.97;1.60;;;;;;;21.61;46.02;97241.19;5043471;28;20841;-72
2022/06/21 04:52:13;;;;;;;1.63;1.30;;;;;;;21.65;44.96;97244.22;5029383;28;20464;-72
2022/06/21 04:54:40;;;;;;;4.50;1.50;;;;;;;21.77;45.29;97245.13;5066638;28;20451;-73
2022/06/21 04:57:09;;;;;;;2.57;1.60;;;;;;;21.77;44.39;97251.25;5048774;28;20485;-72
2022/06/21 04:59:49;;;;;;;3.47;1.37;;;;;;;21.84;44.29;97255.72;5061986;28;20431;-72
2022/06/21 05:02:17;;;;;;;3.23;1.60;;;;;;;21.89;43.48;97264.66;5061801;28;20527;-72
2022/06/21 05:04:44;;;;;;;2.27;1.70;;;;;;;21.90;42.78;97255.63;5060685;28;20449;-72
2022/06/21 05:07:19;;;;;;;5.40;1.53;;;;;;;21.89;43.21;97250.50;5026284;28;20509;-72
2022/06/21 05:09:45;;;;;;;4.60;1.60;;;;;;;21.83;42.24;97248.75;5028949;28;20941;-72
2022/06/21 05:12:16;;;;;;;4.60;1.43;;;;;;;21.79;42.30;97243.84;5052811;28;20426;-73
2022/06/21 05:14:46;;;;;;;4.97;2.30;;;;;;;21.78;41.81;97238.75;5038517;28;20446;-72
2022/06/21 05:17:15;;;;;;;2.47;1.50;;;;;;;21.81;42.63;97248.94;5013422;28;20449;-71
2022/06/21 05:19:44;;;;;;;5.63;1.30;;;;;;;21.90;42.38;97247.63;5044947;28;20880;-72
2022/06/21 05:22:17;;;;;;;2.50;1.60;;;;;;;22.01;42.16;97261.25;5051724;28;20430;-73
2022/06/21 05:24:44;;;;;;;4.90;1.60;;;;;;;22.01;41.59;97250.56;5040436;28;20456;-71
2022/06/21 05:27:23;;;;;;;3.73;1.30;;;;;;;22.00;41.35;97243.59;5039677;28;20797;-72
2022/06/21 05:29:52;;;;;;;7.80;1.83;;;;;;;21.98;40.95;97233.16;5053102;28;20496;-72
2022/06/21 05:32:20;;;;;;;3.93;1.37;;;;;;;22.00;41.05;97231.06;5037003;28;20434;-73
2022/06/21 05:34:49;;;;;;;2.70;1.73;;;;;;;22.04;40.52;97234.91;5042462;28;20483;-72
2022/06/21 05:37:21;;;;;;;3.33;1.70;;;;;;;22.11;40.60;97242.03;5037445;28;20449;-72
2022/06/21 05:39:48;;;;;;;10.27;1.87;;;;;;;22.08;40.22;97238.78;5036742;28;20932;-70
2022/06/21 05:42:16;;;;;;;4.67;1.63;;;;;;;22.05;40.43;97241.09;5047753;28;20439;-72
2022/06/21 05:44:53;;;;;;;4.20;2.17;;;;;;;22.01;40.04;97250.56;5030633;28;20486;-72
2022/06/21 05:47:29;;;;;;;2.03;1.77;;;;;;;21.53;41.18;97250.28;5045825;28;20855;-72
2022/06/21 05:49:58;;;;;;;4.60;1.80;;;;;;;21.78;41.41;97257.41;5049132;28;20481;-72
2022/06/21 05:52:30;;;;;;;7.87;1.97;;;;;;;21.94;41.63;97251.44;5050877;28;20457;-72
2022/06/21 05:54:59;;;;;;;3.30;1.73;;;;;;;22.00;41.88;97264.94;5061908;28;20514;-72
2022/06/21 05:57:26;;;;;;;8.70;2.00;;;;;;;21.92;41.91;97258.88;5038330;28;20439;-72
2022/06/21 05:59:51;;;;;;;5.03;1.63;;;;;;;21.87;42.11;97263.25;5054030;28;20977;-72
2022/06/21 06:02:33;;;;;;;2.70;1.50;;;;;;;21.82;42.38;97273.78;5041523;28;20462;-72
2022/06/21 06:05:06;;;;;;;2.80;1.83;;;;;;;21.87;42.08;97269.41;5037139;28;20215;-72
2022/06/21 06:07:40;;;;;;;1.83;1.67;;;;;;;21.90;42.47;97276.13;5056249;28;20432;-74
2022/06/21 06:10:07;;;;;;;2.57;1.87;;;;;;;21.87;42.76;97276.56;5051676;28;20442;-72
2022/06/21 06:12:47;;;;;;;3.43;1.90;;;;;;;21.84;42.71;97272.50;5064458;28;20417;-74
2022/06/21 06:15:20;;;;;;;3.47;1.80;;;;;;;21.81;42.51;97269.47;5053184;28;20496;-73
2022/06/21 06:17:59;;;;;;;3.20;2.20;;;;;;;21.44;42.14;97268.41;5053833;28;20429;-72
2022/06/21 06:20:35;;;;;;;6.90;2.47;;;;;;;21.45;42.44;97270.03;5054088;28;20838;-72
2022/06/21 06:23:31;;;;;;;5.07;2.03;;;;;;;21.53;42.73;97271.59;5060685;28;20794;-72
2022/06/21 06:26:01;;;;;;;4.50;2.20;;;;;;;21.81;42.79;97267.63;5035269;28;20936;-72
2022/06/21 06:28:52;;;;;;;4.60;2.47;;;;;;;21.94;43.28;97272.00;5067610;28;20429;-71
2022/06/21 06:31:32;;;;;;;3.70;2.23;;;;;;;22.09;43.48;97267.09;5057107;28;20666;-72
2022/06/21 06:34:02;;;;;;;3.73;2.20;;;;;;;22.17;42.91;97259.81;5048397;28;21058;-71
2022/06/21 06:36:32;;;;;;;3.07;2.33;;;;;;;22.24;42.78;97257.88;5049850;28;20567;-72
2022/06/21 06:38:59;;;;;;;2.70;2.20;;;;;;;22.40;43.37;97256.41;5029482;28;20439;-73
2022/06/21 06:41:34;;;;;;;3.20;2.30;;;;;;;22.57;43.24;97264.63;5058086;28;20923;-71
2022/06/21 06:44:03;;;;;;;5.27;2.03;;;;;;;22.38;42.61;97250.47;5043294;28;20466;-72
2022/06/21 06:46:33;;;;;;;5.33;1.97;;;;;;;22.19;42.46;97258.53;5043835;28;20919;-70
2022/06/21 06:49:07;;;;;;;5.87;1.80;;;;;;;22.55;42.32;97251.50;5048843;28;20436;-73
2022/06/21 06:51:47;;;;;;;4.87;1.80;;;;;;;22.82;41.97;97251.06;5045036;28;20429;-72
2022/06/21 06:54:21;;;;;;;2.70;1.87;;;;;;;23.07;40.92;97243.91;5065533;28;20463;-72
2022/06/21 06:56:56;;;;;;;1.83;1.70;;;;;;;23.22;40.64;97251.47;5061969;28;20525;-71
2022/06/21 06:59:25;;;;;;;4.93;2.17;;;;;;;23.28;40.26;97253.25;5070721;28;20911;-69
2022/06/21 07:02:02;;;;;;;2.30;2.03;;;;;;;23.37;39.45;97251.84;5065140;28;20475;-70
2022/06/21 07:04:32;;;;;;;6.20;2.10;;;;;;;23.53;39.03;97260.19;5058644;28;20424;-71
2022/06/21 07:07:04;;;;;;;4.27;2.10;;;;;;;23.61;38.00;97262.50;5050850;28;20947;-71
2022/06/21 07:09:33;;;;;;;10.63;2.13;;;;;;;23.71;38.03;97262.72;5064199;28;20420;-71
2022/06/21 07:12:08;;;;;;;2.53;1.87;;;;;;;23.82;37.77;97257.59;5044570;28;20434;-72
2022/06/21 07:14:35;;;;;;;4.37;2.03;;;;;;;23.95;37.42;97268.00;5051489;28;20428;-72
2022/06/21 07:17:10;;;;;;;3.90;2.30;;;;;;;24.10;37.46;97275.56;5067336;28;20426;-71
2022/06/21 07:19:35;;;;;;;3.07;1.80;;;;;;;24.22;36.72;97280.88;5033603;28;20435;-70
2022/06/21 07:22:01;;;;;;;5.00;2.00;;;;;;;24.19;36.64;97294.75;5069658;28;20418;-71
2022/06/21 07:24:27;;;;;;;3.73;2.10;;;;;;;24.40;37.04;97290.56;5067320;28;20191;-72
2022/06/21 07:27:03;;;;;;;4.03;2.03;;;;;;;24.59;37.11;97283.16;5045689;28;20174;-70
2022/06/21 07:29:32;;;;;;;6.10;2.10;;;;;;;24.78;36.02;97275.72;5052397;28;20927;-71
2022/06/21 07:32:05;;;;;;;4.10;2.10;;;;;;;24.72;36.03;97276.72;5063280;28;20511;-71
2022/06/21 07:34:47;;;;;;;3.90;2.00;;;;;;;24.76;36.08;97277.03;5048707;28;20943;-71
2022/06/21 07:37:16;;;;;;;3.20;2.13;;;;;;;24.75;35.74;97281.59;5059321;28;20958;-71
2022/06/21 07:39:52;;;;;;;3.93;2.17;;;;;;;24.73;36.22;97280.19;5069667;28;20931;-72
2022/06/21 07:42:32;;;;;;;4.30;2.13;;;;;;;24.73;36.31;97282.88;5060783;28;20462;-71
2022/06/21 07:45:09;;;;;;;5.27;2.03;;;;;;;24.63;35.99;97272.78;5066112;28;20501;-70
2022/06/21 07:47:43;;;;;;;2.90;1.70;;;;;;;24.51;36.26;97275.50;5062745;28;20417;-71
2022/06/21 07:50:19;;;;;;;2.57;1.93;;;;;;;24.48;36.36;97271.47;5061849;28;20426;-71
2022/06/21 07:53:07;;;;;;;5.53;2.10;;;;;;;24.28;36.85;97263.03;5057299;28;20495;-71
2022/06/21 07:55:41;;;;;;;4.00;2.00;;;;;;;24.37;36.31;97259.75;5052224;28;20472;-71
2022/06/21 07:58:12;;;;;;;3.73;1.83;;;;;;;24.39;36.42;97246.09;5044237;28;20855;-70
2022/06/21 08:09:13;;;;;;;4.03;1.80;;;;;;;25.02;36.21;97218.47;5055573;28;20430;-72
2022/06/21 08:11:41;;;;;;;3.63;2.30;;;;;;;25.05;35.82;97215.31;5057132;28;20421;-71
2022/06/21 08:14:08;;;;;;;6.20;1.80;;;;;;;24.81;35.15;97216.31;5061515;28;20444;-71
2022/06/21 08:16:38;;;;;;;3.77;1.80;;;;;;;24.62;35.01;97212.22;5070204;28;20467;-72
2022/06/21 08:19:12;;;;;;;4.23;1.93;;;;;;;24.52;35.56;97207.50;5059046;28;20512;-71
2022/06/21 08:21:52;;;;;;;5.23;1.83;;;;;;;24.49;35.85;97218.69;5070152;28;20424;-72
2022/06/21 08:24:31;;;;;;;4.30;2.30;;;;;;;24.33;35.34;97221.09;5062531;28;20433;-71
2022/06/21 08:27:05;;;;;;;2.23;1.90;;;;;;;24.22;36.03;97224.63;5059043;28;20567;-73
2022/06/21 08:29:49;;;;;;;4.20;2.23;;;;;;;24.22;37.07;97222.78;5050486;28;20422;-70
2022/06/21 08:32:37;;;;;;;6.37;2.17;;;;;;;24.20;36.16;97222.22;5062891;28;20421;-71
2022/06/21 08:35:17;;;;;;;4.60;2.10;;;;;;;24.27;36.78;97216.72;5063326;28;20561;-71
2022/06/21 08:38:04;;;;;;;9.53;2.50;;;;;;;24.33;36.07;97204.22;5064099;28;20432;-73
2022/06/21 08:40:58;;;;;;;5.03;2.20;;;;;;;24.21;36.19;97209.63;5065376;28;20408;-71
2022/06/21 08:43:46;;;;;;;4.63;2.20;;;;;;;24.24;36.55;97233.25;5062447;28;20421;-70
2022/06/21 08:46:20;;;;;;;3.40;1.73;;;;;;;24.16;36.90;97249.72;5062073;28;20491;-73
2022/06/21 08:49:30;;;;;;;3.67;1.87;;;;;;;24.16;37.29;97250.50;5064103;28;20847;-72
2022/06/21 08:52:23;;;;;;;4.47;2.00;;;;;;;24.10;37.05;97222.03;5059261;28;20779;-72
2022/06/21 08:54:59;;;;;;;5.90;2.10;;;;;;;24.04;37.63;97221.13;5060276;28;20433;-71
2022/06/21 08:57:28;;;;;;;4.13;2.07;;;;;;;23.96;38.87;97220.69;5063032;28;20423;-71
2022/06/21 09:00:19;;;;;;;4.90;2.30;;;;;;;23.89;39.09;97208.22;5066730;28;20894;-71
2022/06/21 09:03:36;;;;;;;4.37;2.23;;;;;;;23.87;39.74;97209.50;5052042;28;20405;-71
2022/06/21 09:06:51;;;;;;;5.00;2.77;;;;;;;23.89;40.95;97210.09;5036046;28;20462;-75
2022/06/21 09:09:33;;;;;;;3.40;2.13;;;;;;;23.89;41.57;97215.44;5047027;28;20921;-71
2022/06/21 09:12:52;;;;;;;5.63;1.97;;;;;;;23.76;40.29;97205.81;5058677;28;20441;-71
2022/06/21 09:15:31;;;;;;;4.70;2.23;;;;;;;23.84;40.84;97212.66;5006852;28;20525;-71
2022/06/21 09:18:27;;;;;;;5.63;2.20;;;;;;;23.89;40.90;97215.44;5006652;28;20423;-71
2022/06/21 09:21:12;;;;;;;8.43;2.17;;;;;;;23.93;40.11;97216.59;5047394;28;20972;-71
2022/06/21 09:23:49;;;;;;;6.37;2.17;;;;;;;24.15;39.67;97227.47;5061688;28;20464;-71
2022/06/21 09:26:34;;;;;;;4.30;2.20;;;;;;;24.37;39.05;97211.53;5059288;28;20463;-71
2022/06/21 09:29:11;;;;;;;3.07;2.27;;;;;;;24.52;37.84;97224.38;5062153;28;20429;-71
2022/06/21 09:31:55;;;;;;;6.50;2.10;;;;;;;24.86;37.67;97226.28;5048364;28;20444;-72
2022/06/21 09:34:47;;;;;;;6.93;2.00;;;;;;;25.28;36.85;97225.00;5064463;28;20429;-70
2022/06/21 09:37:36;;;;;;;2.90;2.30;;;;;;;25.72;36.80;97221.59;5052414;28;20981;-71
2022/06/21 09:40:09;;;;;;;1.93;1.70;;;;;;;26.06;35.78;97218.78;5066407;28;20428;-71
2022/06/21 09:42:40;;;;;;;3.43;2.00;;;;;;;26.36;35.22;97217.47;5056169;28;20453;-71
2022/06/21 09:45:38;;;;;;;3.17;2.30;;;;;;;26.61;34.15;97214.22;5063652;28;20448;-71
2022/06/21 09:48:17;;;;;;;5.03;2.27;;;;;;;26.81;33.14;97216.28;5050988;28;20948;-72
2022/06/21 09:50:57;;;;;;;2.87;1.90;;;;;;;27.04;33.77;97203.53;5056728;28;20908;-71
2022/06/21 09:53:50;;;;;;;3.83;2.17;;;;;;;27.14;33.53;97192.03;5056985;28;20523;-70
2022/06/21 09:56:21;;;;;;;4.77;1.97;;;;;;;27.32;33.16;97195.34;5057887;28;21244;-70
2022/06/21 09:59:09;;;;;;;4.30;2.00;;;;;;;27.49;33.22;97189.78;5062049;28;20433;-70
2022/06/21 10:01:42;;;;;;;7.47;2.17;;;;;;;27.53;32.04;97196.28;5063684;28;20822;-71
2022/06/21 10:04:30;;;;;;;2.93;2.33;;;;;;;27.73;33.40;97200.94;5065435;28;20433;-71
2022/06/21 10:07:11;;;;;;;3.87;2.00;;;;;;;27.88;33.29;97198.31;5055217;28;20912;-70
2022/06/21 10:09:36;;;;;;;2.90;2.00;;;;;;;27.97;32.18;97195.91;5055384;28;20424;-70
2022/06/21 10:12:05;;;;;;;4.70;2.10;;;;;;;28.08;31.47;97191.34;5063325;28;20784;-71
2022/06/21 10:14:48;;;;;;;4.53;2.13;;;;;;;28.10;31.94;97183.03;5063058;28;20207;-71
2022/06/21 10:17:35;;;;;;;7.17;1.80;;;;;;;28.05;32.69;97181.09;5064314;28;20456;-70
2022/06/21 10:20:31;;;;;;;9.50;2.60;;;;;;;28.26;32.72;97184.66;5063204;28;20416;-70
2022/06/21 10:23:17;;;;;;;9.73;2.63;;;;;;;28.43;32.42;97175.53;5058874;28;20405;-71
2022/06/21 10:26:11;;;;;;;8.33;2.60;;;;;;;28.57;33.12;97163.13;5055766;28;20874;-70
2022/06/21 10:28:43;;;;;;;4.03;2.60;;;;;;;28.65;31.88;97159.88;5056148;28;20504;-70
2022/06/21 10:31:54;;;;;;;4.97;2.30;;;;;;;28.74;31.93;97160.19;5051903;28;20413;-70
2022/06/21 10:34:34;;;;;;;3.27;1.97;;;;;;;28.69;32.13;97149.34;5049664;28;20854;-70
2022/06/21 10:37:03;;;;;;;7.60;2.40;;;;;;;28.80;32.26;97152.88;5054068;28;20498;-70
2022/06/21 10:39:40;;;;;;;3.60;2.30;;;;;;;29.01;32.27;97148.28;5051038;28;20770;-71
2022/06/21 10:42:48;;;;;;;3.80;2.00;;;;;;;29.11;31.94;97136.66;5064404;28;20534;-70
2022/06/21 10:45:35;;;;;;;3.77;2.30;;;;;;;29.19;31.22;97137.94;5064712;28;20459;-70
2022/06/21 10:48:22;;;;;;;2.30;2.10;;;;;;;29.28;30.96;97129.00;5057636;28;20908;-70
2022/06/21 10:51:18;;;;;;;4.70;2.03;;;;;;;29.36;31.95;97126.88;5046546;28;20413;-71
2022/06/21 10:54:31;;;;;;;4.37;2.37;;;;;;;28.95;31.33;97114.28;5058142;28;20428;-71
2022/06/21 10:57:11;;;;;;;2.47;2.00;;;;;;;29.26;32.16;97116.91;5057925;28;20477;-71
2022/06/21 11:02:30;;;;;;;4.70;2.63;;;;;;;29.51;31.81;97107.09;5051484;28;20499;-71
2022/06/21 11:05:09;;;;;;;4.60;2.23;;;;;;;29.69;32.12;97111.03;5070225;28;20524;-71
2022/06/21 11:07:36;;;;;;;8.70;2.80;;;;;;;29.65;31.65;97124.31;5059102;28;20539;-71
2022/06/21 11:10:07;;;;;;;6.20;2.40;;;;;;;29.79;31.67;97113.69;5053412;28;20996;-73
2022/06/21 11:13:04;;;;;;;4.50;2.10;;;;;;;29.91;31.73;97107.94;5067415;28;20477;-70
2022/06/21 11:15:32;;;;;;;4.00;2.13;;;;;;;29.76;32.12;97110.75;5049469;28;20555;-71
2022/06/21 11:18:25;;;;;;;9.23;2.20;;;;;;;29.84;32.22;97102.03;5069108;28;20425;-71
2022/06/21 11:21:19;;;;;;;5.00;2.50;;;;;;;29.89;31.80;97097.41;5062714;28;20457;-71
2022/06/21 11:24:03;;;;;;;12.03;2.63;;;;;;;29.80;31.91;97101.00;5066967;28;20437;-71
2022/06/21 11:26:59;;;;;;;6.63;2.30;;;;;;;29.54;32.23;97096.53;5048748;28;20951;-70
2022/06/21 11:29:39;;;;;;;5.17;2.70;;;;;;;28.74;33.69;97098.16;5067849;28;20973;-70
2022/06/21 11:32:17;;;;;;;4.13;2.30;;;;;;;28.96;34.47;97086.25;5063368;28;20539;-70
2022/06/21 11:34:53;;;;;;;4.90;2.53;;;;;;;29.04;34.28;97076.78;5067420;28;20462;-71
2022/06/21 11:37:33;;;;;;;5.30;2.43;;;;;;;29.11;34.53;97066.53;5057693;28;20603;-71
2022/06/21 11:40:33;;;;;;;4.67;2.33;;;;;;;29.07;33.97;97068.94;5068884;28;20498;-71
2022/06/21 11:42:59;;;;;;;3.90;2.60;;;;;;;29.09;33.55;97080.25;5051727;28;20430;-72
2022/06/21 11:45:47;;;;;;;3.67;2.20;;;;;;;29.28;33.58;97077.75;5063729;28;20452;-72
2022/06/21 11:48:30;;;;;;;2.97;2.53;;;;;;;29.61;33.80;97071.16;5057909;28;20271;-72
2022/06/21 11:51:04;;;;;;;3.20;2.17;;;;;;;29.82;34.42;97052.91;5054577;28;20429;-71
2022/06/21 11:53:45;;;;;;;4.77;2.67;;;;;;;29.83;33.17;97066.13;5053586;28;20786;-71
2022/06/21 11:56:28;;;;;;;5.63;2.20;;;;;;;29.93;33.65;97053.63;5062005;28;20818;-71
2022/06/21 11:58:54;;;;;;;3.47;2.40;;;;;;;29.75;33.32;97049.72;5066311;28;20553;-71
2022/06/21 12:01:27;;;;;;;3.40;2.53;;;;;;;29.55;34.03;97059.59;5068418;28;20920;-72
2022/06/21 12:04:20;;;;;;;8.70;2.57;;;;;;;29.58;34.53;97073.31;5050026;28;20182;-71
2022/06/21 12:06:53;;;;;;;8.50;2.60;;;;;;;29.46;34.29;97064.75;5037140;28;20453;-72
2022/06/21 12:09:34;;;;;;;3.27;2.47;;;;;;;29.53;34.21;97056.34;5061499;28;20479;-71
2022/06/21 12:12:20;;;;;;;6.73;2.90;;;;;;;29.51;34.42;97048.50;5060540;28;20428;-71
2022/06/21 12:15:09;;;;;;;4.37;2.73;;;;;;;29.66;35.21;97057.59;5053497;28;20903;-71
2022/06/21 12:17:58;;;;;;;4.70;2.40;;;;;;;29.75;35.29;97047.81;5066812;28;20907;-72
2022/06/21 12:20:42;;;;;;;3.10;2.40;;;;;;;29.82;35.59;97039.41;5063334;28;20923;-70
2022/06/21 12:23:19;;;;;;;5.33;2.40;;;;;;;29.85;35.50;97028.84;5068353;28;20757;-70
2022/06/21 12:25:46;;;;;;;10.23;3.23;;;;;;;29.95;34.99;97030.69;5060250;28;20437;-72
2022/06/21 12:28:17;;;;;;;5.90;2.70;;;;;;;29.96;34.95;97028.81;5065854;28;20458;-71
2022/06/21 12:30:43;;;;;;;5.20;2.80;;;;;;;30.00;34.81;97025.25;5061216;28;20424;-72